Hovedside
METAR-TAF:

METAR-TAF

Lufthavner :

Mora, Sverige

Mora–Siljan

breddegrad: 60-57-31N, lengdegrad: 14-30-40E, høyde over havet: 193 m

Gjeldene værobservasjon

Denne rapporten ble laget for 18 minutter siden, klokken 05:50 UTC
Vind 6 kt fra Vest-sørvest
Temperatur -5°C
Luftfuktighet 68%
Trykk 1024 hPa
Sikt 10 km eller mer
ingen skyer under 1500 m og ingen bygeskyer

METAR: ESKM 240550Z 25006KT CAVOK M05/M10 Q1024

Tid: 07:08 (06:08 UTC)


TAF: fraværende

Værobservasjoner og værvarsel for over 4000 flyplasser (METAR- og TAF-rapporter).

Tilgjengelige stasjoner er representert av de røde og gule prikkene på kartet.

Hold musepekeren over prikken for å se navnet på stasjonen.

Klikk så for å se værobservasjoner og -varsler.

For å forandre kartet kan du klikke på den grønne knappen med svart kryss for å zoome inn, på den grønne knappen med strek for å zoome ut, eller på de grønne pilene for å se tilstøtende kart.


METAR-TAF: